createdAt,value
2019-02-14T00:00:28.013Z,7.70
2019-02-14T00:02:56.285Z,7.60
2019-02-14T00:05:22.997Z,7.60
2019-02-14T00:07:51.260Z,7.50
2019-02-14T00:10:17.912Z,7.50
2019-02-14T00:12:44.488Z,7.60
2019-02-14T00:15:12.456Z,7.70
2019-02-14T00:17:39.010Z,7.70
2019-02-14T00:20:07.925Z,7.60
2019-02-14T00:22:34.550Z,7.60
2019-02-14T00:25:01.118Z,7.60
2019-02-14T00:27:27.642Z,7.50
2019-02-14T00:29:54.224Z,7.60
2019-02-14T00:32:20.796Z,7.50
2019-02-14T00:34:47.434Z,7.40
2019-02-14T00:37:13.966Z,7.50
2019-02-14T00:39:40.659Z,7.50
2019-02-14T00:42:07.233Z,7.40
2019-02-14T00:44:33.760Z,7.50
2019-02-14T00:47:00.376Z,7.50
2019-02-14T00:49:26.935Z,7.50
2019-02-14T00:51:53.563Z,7.50
2019-02-14T00:54:20.117Z,7.40
2019-02-14T00:56:46.765Z,7.50
2019-02-14T00:59:13.271Z,7.40
2019-02-14T01:01:39.797Z,7.30
2019-02-14T01:04:06.427Z,7.40
2019-02-14T01:06:33.060Z,7.40
2019-02-14T01:08:59.613Z,7.40
2019-02-14T01:11:26.148Z,7.40
2019-02-14T01:13:52.714Z,7.30
2019-02-14T01:16:19.240Z,7.30
2019-02-14T01:18:45.820Z,7.30
2019-02-14T01:21:12.297Z,7.40
2019-02-14T01:23:38.849Z,7.30
2019-02-14T01:26:05.374Z,7.20
2019-02-14T01:28:31.936Z,7.30
2019-02-14T01:30:58.513Z,7.30
2019-02-14T01:33:25.102Z,7.40
2019-02-14T01:35:51.638Z,7.40
2019-02-14T01:38:18.217Z,7.40
2019-02-14T01:40:44.757Z,7.30
2019-02-14T01:43:11.312Z,7.30
2019-02-14T01:45:37.881Z,7.40
2019-02-14T01:48:04.416Z,7.50
2019-02-14T01:50:30.977Z,7.40
2019-02-14T01:52:57.556Z,7.40
2019-02-14T01:55:24.071Z,7.20
2019-02-14T01:57:50.632Z,7.40
2019-02-14T02:00:17.494Z,7.30
2019-02-14T02:02:44.040Z,7.20
2019-02-14T02:05:10.635Z,7.20
2019-02-14T02:07:37.171Z,7.20
2019-02-14T02:10:07.020Z,7.30
2019-02-14T02:12:33.767Z,7.30
2019-02-14T02:15:00.347Z,7.30
2019-02-14T02:17:27.218Z,7.40
2019-02-14T02:19:53.810Z,7.40
2019-02-14T02:22:20.290Z,7.30
2019-02-14T02:24:46.880Z,7.20
2019-02-14T02:27:13.435Z,7.30
2019-02-14T02:29:40.020Z,7.30
2019-02-14T02:32:06.563Z,7.20
2019-02-14T02:34:33.281Z,7.30
2019-02-14T02:36:59.795Z,7.20
2019-02-14T02:39:26.344Z,7.30
2019-02-14T02:41:53.148Z,7.40
2019-02-14T02:44:19.724Z,7.30
2019-02-14T02:46:46.319Z,7.20
2019-02-14T02:49:12.916Z,7.20
2019-02-14T02:51:39.565Z,7.20
2019-02-14T02:54:06.364Z,7.30
2019-02-14T02:56:32.919Z,7.20
2019-02-14T02:58:59.504Z,7.30
2019-02-14T03:01:26.040Z,7.30
2019-02-14T03:03:54.334Z,7.40
2019-02-14T03:06:22.476Z,7.30
2019-02-14T03:08:49.167Z,7.20
2019-02-14T03:11:15.711Z,7.30
2019-02-14T03:13:42.243Z,7.20
2019-02-14T03:16:08.960Z,7.20
2019-02-14T03:18:35.506Z,7.10
2019-02-14T03:21:02.099Z,7.10
2019-02-14T03:23:28.783Z,7.00
2019-02-14T03:25:55.376Z,7.10
2019-02-14T03:28:22.045Z,7.20
2019-02-14T03:30:48.664Z,7.00
2019-02-14T03:33:15.200Z,7.00
2019-02-14T03:35:41.783Z,7.10
2019-02-14T03:38:08.359Z,7.20
2019-02-14T03:40:35.146Z,7.10
2019-02-14T03:43:01.783Z,7.10
2019-02-14T03:45:30.111Z,7.00
2019-02-14T03:47:58.351Z,7.00
2019-02-14T03:50:25.082Z,6.90
2019-02-14T03:52:51.752Z,6.90
2019-02-14T03:55:18.485Z,6.90
2019-02-14T03:57:45.145Z,6.90
2019-02-14T04:00:16.066Z,6.90
2019-02-14T04:02:42.796Z,7.00
2019-02-14T04:05:09.689Z,7.00
2019-02-14T04:07:36.421Z,7.00
2019-02-14T04:10:08.960Z,7.10
2019-02-14T04:12:35.647Z,7.10
2019-02-14T04:15:03.873Z,7.00
2019-02-14T04:17:30.561Z,7.00
2019-02-14T04:19:57.178Z,7.10
2019-02-14T04:22:23.854Z,7.00
2019-02-14T04:24:50.381Z,7.00
2019-02-14T04:27:16.921Z,6.90
2019-02-14T04:29:43.438Z,6.90
2019-02-14T04:32:09.997Z,6.80
2019-02-14T04:34:36.525Z,6.80
2019-02-14T04:37:03.089Z,6.80
2019-02-14T04:39:29.722Z,6.70
2019-02-14T04:41:56.269Z,6.80
2019-02-14T04:44:22.884Z,6.80
2019-02-14T04:46:49.425Z,6.80
2019-02-14T04:49:16.044Z,6.90
2019-02-14T04:51:42.593Z,6.90
2019-02-14T04:54:09.115Z,6.80
2019-02-14T04:56:35.665Z,6.80
2019-02-14T04:59:02.197Z,6.70
2019-02-14T05:01:28.736Z,6.70
2019-02-14T05:03:55.266Z,6.60
2019-02-14T05:06:21.818Z,6.60
2019-02-14T05:08:48.353Z,6.60
2019-02-14T05:11:14.897Z,6.60
2019-02-14T05:13:41.523Z,6.60
2019-02-14T05:16:08.070Z,6.60
2019-02-14T05:18:34.757Z,6.60
2019-02-14T05:21:01.305Z,6.70
2019-02-14T05:23:27.854Z,6.70
2019-02-14T05:25:54.369Z,6.60
2019-02-14T05:28:22.621Z,6.60
2019-02-14T05:30:49.153Z,6.50
2019-02-14T05:33:17.388Z,6.60
2019-02-14T05:35:44.115Z,6.70
2019-02-14T05:38:10.756Z,6.70
2019-02-14T05:40:37.385Z,6.80
2019-02-14T05:43:03.954Z,6.80
2019-02-14T05:45:30.458Z,6.70
2019-02-14T05:47:57.012Z,6.70
2019-02-14T05:50:23.642Z,6.60
2019-02-14T05:52:50.181Z,6.70
2019-02-14T05:55:16.726Z,6.70
2019-02-14T05:57:43.278Z,6.50
2019-02-14T06:00:17.260Z,6.40
2019-02-14T06:02:43.886Z,6.20
2019-02-14T06:05:10.626Z,6.20
2019-02-14T06:07:37.179Z,6.10
2019-02-14T06:10:06.893Z,6.10
2019-02-14T06:12:33.654Z,6.20
2019-02-14T06:15:00.351Z,6.10
2019-02-14T06:17:26.979Z,6.20
2019-02-14T06:19:53.450Z,6.30
2019-02-14T06:22:20.504Z,6.40
2019-02-14T06:24:47.023Z,6.30
2019-02-14T06:27:13.649Z,6.20
2019-02-14T06:29:40.301Z,6.30
2019-02-14T06:32:07.328Z,6.30
2019-02-14T06:34:33.884Z,6.20
2019-02-14T06:37:00.417Z,6.20
2019-02-14T06:39:26.961Z,6.10
2019-02-14T06:41:54.788Z,6.10
2019-02-14T06:44:21.449Z,6.10
2019-02-14T06:46:48.060Z,6.30
2019-02-14T06:49:15.013Z,6.20
2019-02-14T06:51:41.641Z,6.40
2019-02-14T06:54:08.195Z,6.30
2019-02-14T06:56:34.722Z,6.40
2019-02-14T06:59:01.277Z,6.40
2019-02-14T07:01:27.802Z,6.50
2019-02-14T07:03:54.352Z,6.40
2019-02-14T07:06:20.873Z,6.50
2019-02-14T07:08:47.440Z,6.50
2019-02-14T07:11:13.960Z,6.50
2019-02-14T07:13:40.518Z,6.40
2019-02-14T07:16:07.129Z,6.40
2019-02-14T07:18:33.901Z,6.40
2019-02-14T07:21:00.619Z,6.40
2019-02-14T07:23:27.324Z,6.40
2019-02-14T07:25:53.854Z,6.50
2019-02-14T07:28:20.399Z,6.60
2019-02-14T07:30:47.629Z,6.50
2019-02-14T07:33:14.290Z,6.50
2019-02-14T07:35:40.917Z,6.70
2019-02-14T07:38:07.474Z,6.60
2019-02-14T07:40:34.089Z,6.60
2019-02-14T07:43:00.771Z,6.70
2019-02-14T07:45:27.290Z,6.60
2019-02-14T07:47:53.809Z,6.70
2019-02-14T07:50:20.460Z,6.60
2019-02-14T07:52:46.886Z,6.80
2019-02-14T07:55:13.698Z,6.70
2019-02-14T07:57:40.536Z,6.60
2019-02-14T08:00:10.710Z,6.70
2019-02-14T08:02:39.042Z,6.70
2019-02-14T08:05:06.693Z,6.70
2019-02-14T08:07:36.043Z,6.70
2019-02-14T08:10:01.966Z,6.70
2019-02-14T08:12:30.185Z,6.70
2019-02-14T08:14:57.336Z,6.60
2019-02-14T08:17:24.881Z,6.50
2019-02-14T08:19:51.621Z,6.60
2019-02-14T08:22:19.151Z,6.70
2019-02-14T08:24:46.296Z,6.80
2019-02-14T08:27:13.027Z,6.80
2019-02-14T08:29:40.164Z,6.70
2019-02-14T08:32:07.971Z,6.70
2019-02-14T08:34:34.617Z,6.60
2019-02-14T08:37:02.435Z,6.60
2019-02-14T08:39:29.087Z,6.60
2019-02-14T08:41:55.809Z,6.60
2019-02-14T08:44:23.357Z,6.60
2019-02-14T08:46:50.577Z,6.70
2019-02-14T08:49:17.401Z,6.70
2019-02-14T08:51:44.825Z,6.80
2019-02-14T08:54:11.476Z,6.90
2019-02-14T08:56:38.502Z,7.00
2019-02-14T08:59:05.354Z,6.80
2019-02-14T09:01:31.973Z,6.90
2019-02-14T09:03:58.624Z,6.90
2019-02-14T09:06:25.349Z,6.90
2019-02-14T09:08:52.502Z,6.80
2019-02-14T09:11:19.833Z,6.90
2019-02-14T09:13:48.132Z,7.00
2019-02-14T09:16:14.749Z,7.10
2019-02-14T09:18:41.294Z,7.00
2019-02-14T09:21:07.858Z,6.90
2019-02-14T09:23:34.386Z,6.70
2019-02-14T09:26:02.410Z,6.70
2019-02-14T09:28:29.153Z,6.70
2019-02-14T09:30:55.897Z,6.80
2019-02-14T09:33:22.622Z,6.80
2019-02-14T09:35:50.182Z,6.80
2019-02-14T09:38:16.802Z,6.60
2019-02-14T09:40:44.064Z,6.70
2019-02-14T09:43:11.593Z,6.60
2019-02-14T09:45:38.638Z,6.60
2019-02-14T09:48:06.266Z,6.70
2019-02-14T09:50:33.228Z,6.60
2019-02-14T09:52:59.857Z,6.60
2019-02-14T09:55:26.802Z,6.70
2019-02-14T09:57:53.932Z,6.80
2019-02-14T10:00:20.688Z,6.90
2019-02-14T10:02:47.211Z,6.90
2019-02-14T10:05:14.168Z,7.00
2019-02-14T10:07:40.668Z,7.20
2019-02-14T10:10:13.359Z,7.00
2019-02-14T10:12:39.884Z,6.90
2019-02-14T10:15:08.333Z,6.90
2019-02-14T10:17:34.949Z,7.10
2019-02-14T10:20:02.039Z,7.20
2019-02-14T10:22:28.563Z,7.40
2019-02-14T10:24:55.282Z,7.60
2019-02-14T10:27:21.856Z,7.40
2019-02-14T10:29:48.410Z,7.40
2019-02-14T10:32:15.034Z,7.30
2019-02-14T10:34:41.656Z,7.30
2019-02-14T10:37:08.209Z,7.20
2019-02-14T10:39:34.745Z,7.30
2019-02-14T10:42:01.292Z,7.30
2019-02-14T10:44:27.918Z,7.20
2019-02-14T10:46:54.470Z,7.10
2019-02-14T10:49:21.129Z,7.20
2019-02-14T10:51:47.865Z,7.40
2019-02-14T10:54:14.377Z,7.30
2019-02-14T10:56:41.030Z,7.20
2019-02-14T10:59:07.648Z,7.20
2019-02-14T11:01:34.215Z,7.20
2019-02-14T11:04:00.830Z,7.50
2019-02-14T11:06:27.486Z,7.60
2019-02-14T11:08:53.941Z,7.70
2019-02-14T11:11:20.492Z,7.70
2019-02-14T11:13:47.109Z,7.40
2019-02-14T11:16:13.678Z,7.50
2019-02-14T11:18:44.377Z,7.50
2019-02-14T11:21:09.165Z,7.50
2019-02-14T11:23:35.797Z,7.50
2019-02-14T11:26:02.443Z,7.50
2019-02-14T11:28:30.673Z,7.50
2019-02-14T11:30:57.429Z,7.70
2019-02-14T11:33:24.059Z,7.90
2019-02-14T11:35:50.512Z,7.90
2019-02-14T11:38:17.038Z,8.10
2019-02-14T11:40:43.711Z,8.20
2019-02-14T11:43:10.229Z,8.30
2019-02-14T11:45:36.852Z,8.30
2019-02-14T11:48:03.510Z,8.30
2019-02-14T11:50:30.174Z,8.30
2019-02-14T11:52:56.734Z,8.40
2019-02-14T11:55:23.250Z,8.50
2019-02-14T11:57:49.772Z,8.60
2019-02-14T12:00:25.470Z,8.60
2019-02-14T12:02:55.658Z,8.60
2019-02-14T12:05:20.667Z,8.60
2019-02-14T12:07:47.201Z,8.50
2019-02-14T12:10:14.034Z,8.70
2019-02-14T12:12:42.295Z,8.70
2019-02-14T12:15:10.652Z,8.60
2019-02-14T12:17:37.172Z,8.80
2019-02-14T12:20:12.258Z,8.70
2019-02-14T12:22:34.969Z,8.80
2019-02-14T12:25:01.808Z,8.90
2019-02-14T12:27:28.333Z,9.00
2019-02-14T12:29:54.884Z,9.00
2019-02-14T12:32:21.410Z,9.10
2019-02-14T12:34:47.935Z,9.00
2019-02-14T12:37:16.070Z,8.90
2019-02-14T12:39:43.521Z,8.90
2019-02-14T12:42:10.158Z,9.10
2019-02-14T12:44:37.477Z,9.40
2019-02-14T12:47:04.159Z,9.40
2019-02-14T12:49:30.768Z,9.40
2019-02-14T12:51:57.322Z,9.60
2019-02-14T12:54:23.955Z,9.80
2019-02-14T12:56:50.492Z,10.20
2019-02-14T12:59:17.055Z,10.50
2019-02-14T13:01:43.701Z,10.90
2019-02-14T13:04:10.320Z,10.80
2019-02-14T13:06:37.001Z,10.80
2019-02-14T13:09:05.329Z,11.00
2019-02-14T13:11:31.885Z,11.20
2019-02-14T13:13:58.496Z,11.10
2019-02-14T13:16:25.558Z,11.10
2019-02-14T13:18:52.173Z,11.30
2019-02-14T13:21:19.021Z,11.50
2019-02-14T13:23:45.654Z,12.00
2019-02-14T13:26:12.469Z,12.30
2019-02-14T13:28:40.704Z,12.70
2019-02-14T13:31:07.453Z,12.30
2019-02-14T13:33:34.094Z,12.70
2019-02-14T13:36:00.865Z,13.00
2019-02-14T13:38:27.385Z,13.40
2019-02-14T13:40:54.717Z,13.60
2019-02-14T13:43:21.362Z,13.80
2019-02-14T13:45:48.123Z,13.90
2019-02-14T13:48:14.655Z,14.00
2019-02-14T13:50:41.273Z,13.90
2019-02-14T13:53:07.920Z,14.00
2019-02-14T13:55:34.562Z,14.60
2019-02-14T13:58:01.257Z,14.80
2019-02-14T14:00:28.761Z,14.70
2019-02-14T14:02:55.321Z,15.10
2019-02-14T14:05:21.886Z,15.20
2019-02-14T14:07:48.413Z,15.20
2019-02-14T14:10:14.943Z,15.40
2019-02-14T14:12:42.333Z,15.30
2019-02-14T14:15:09.129Z,15.60
2019-02-14T14:17:35.692Z,15.60
2019-02-14T14:20:03.620Z,16.10
2019-02-14T14:22:30.176Z,16.30
2019-02-14T14:24:57.860Z,16.50
2019-02-14T14:27:24.465Z,16.60
2019-02-14T14:29:51.000Z,16.20
2019-02-14T14:32:17.444Z,15.40
2019-02-14T14:34:43.969Z,15.60
2019-02-14T14:37:10.533Z,15.90
2019-02-14T14:39:37.049Z,15.50
2019-02-14T14:42:06.017Z,15.30
2019-02-14T14:44:34.514Z,15.20
2019-02-14T14:47:01.142Z,15.70
2019-02-14T14:49:27.658Z,15.80
2019-02-14T14:51:54.215Z,15.60
2019-02-14T14:54:20.736Z,15.80
2019-02-14T14:56:47.294Z,15.70
2019-02-14T14:59:13.853Z,15.50
2019-02-14T15:01:40.414Z,14.90
2019-02-14T15:04:06.944Z,14.90
2019-02-14T15:06:33.560Z,14.70
2019-02-14T15:09:00.125Z,14.40
2019-02-14T15:11:26.658Z,14.50
2019-02-14T15:13:53.327Z,14.70
2019-02-14T15:16:20.045Z,15.10
2019-02-14T15:18:46.709Z,15.00
2019-02-14T15:21:13.338Z,15.10
2019-02-14T15:23:39.913Z,14.90
2019-02-14T15:26:06.470Z,14.90
2019-02-14T15:28:33.039Z,15.00
2019-02-14T15:30:59.609Z,14.70
2019-02-14T15:33:26.145Z,15.10
2019-02-14T15:35:52.725Z,14.60
2019-02-14T15:38:19.295Z,14.20
2019-02-14T15:40:45.811Z,14.20
2019-02-14T15:43:12.459Z,14.50
2019-02-14T15:45:39.029Z,14.50
2019-02-14T15:48:05.676Z,14.20
2019-02-14T15:50:32.276Z,14.10
2019-02-14T15:52:58.917Z,13.70
2019-02-14T15:55:25.486Z,13.50
2019-02-14T15:57:52.045Z,13.00
2019-02-14T16:00:18.612Z,12.50
2019-02-14T16:02:45.348Z,12.00
2019-02-14T16:05:14.504Z,11.90
2019-02-14T16:07:43.088Z,11.70
2019-02-14T16:10:18.100Z,11.60
2019-02-14T16:12:38.174Z,11.40
2019-02-14T16:15:08.996Z,11.30
2019-02-14T16:17:37.044Z,11.30
2019-02-14T16:20:05.951Z,11.20
2019-02-14T16:22:32.524Z,11.10
2019-02-14T16:24:59.048Z,11.00
2019-02-14T16:27:26.910Z,10.80
2019-02-14T16:29:53.702Z,10.70
2019-02-14T16:32:20.371Z,10.70
2019-02-14T16:34:46.828Z,10.50
2019-02-14T16:37:13.410Z,10.50
2019-02-14T16:39:40.126Z,10.40
2019-02-14T16:42:06.688Z,10.40
2019-02-14T16:44:33.413Z,10.30
2019-02-14T16:47:00.082Z,10.30
2019-02-14T16:49:26.612Z,10.20
2019-02-14T16:51:54.238Z,10.20
2019-02-14T16:54:20.865Z,10.20
2019-02-14T16:56:47.397Z,10.10
2019-02-14T16:59:13.969Z,10.20
2019-02-14T17:01:40.581Z,10.00
2019-02-14T17:04:07.243Z,10.00
2019-02-14T17:06:34.018Z,10.00
2019-02-14T17:09:00.538Z,9.80
2019-02-14T17:11:27.504Z,9.90
2019-02-14T17:13:54.173Z,9.90
2019-02-14T17:16:22.839Z,10.00
2019-02-14T17:18:49.289Z,9.90
2019-02-14T17:21:15.897Z,9.80
2019-02-14T17:23:42.462Z,9.80
2019-02-14T17:26:08.983Z,9.70
2019-02-14T17:28:35.582Z,9.50
2019-02-14T17:31:02.246Z,9.30
2019-02-14T17:33:28.776Z,9.30
2019-02-14T17:35:55.361Z,9.20
2019-02-14T17:38:21.886Z,9.20
2019-02-14T17:40:48.417Z,9.20
2019-02-14T17:43:15.009Z,9.10
2019-02-14T17:45:41.652Z,9.00
2019-02-14T17:48:08.284Z,9.00
2019-02-14T17:50:35.056Z,9.00
2019-02-14T17:53:01.570Z,9.20
2019-02-14T17:55:28.141Z,9.20
2019-02-14T17:57:54.690Z,9.30
2019-02-14T18:00:21.217Z,9.30
2019-02-14T18:02:47.795Z,9.20
2019-02-14T18:05:14.417Z,9.10
2019-02-14T18:07:41.016Z,9.20
2019-02-14T18:10:10.320Z,9.20
2019-02-14T18:12:36.995Z,9.10
2019-02-14T18:15:09.799Z,8.90
2019-02-14T18:17:36.366Z,9.10
2019-02-14T18:20:06.034Z,9.10
2019-02-14T18:22:32.709Z,9.10
2019-02-14T18:24:59.231Z,9.10
2019-02-14T18:27:25.803Z,9.00
2019-02-14T18:29:52.510Z,8.90
2019-02-14T18:32:19.228Z,8.90
2019-02-14T18:34:45.901Z,8.80
2019-02-14T18:37:13.524Z,8.90
2019-02-14T18:39:40.175Z,9.00
2019-02-14T18:42:06.839Z,8.90
2019-02-14T18:44:35.103Z,9.00
2019-02-14T18:47:01.665Z,8.90
2019-02-14T18:49:28.176Z,8.70
2019-02-14T18:51:54.842Z,8.70
2019-02-14T18:54:21.537Z,8.70
2019-02-14T18:56:48.152Z,8.70
2019-02-14T18:59:15.678Z,8.80
2019-02-14T19:01:42.407Z,8.70
2019-02-14T19:04:09.567Z,8.50
2019-02-14T19:06:36.238Z,8.40
2019-02-14T19:09:03.911Z,8.50
2019-02-14T19:11:30.426Z,8.50
2019-02-14T19:13:57.147Z,8.50
2019-02-14T19:16:23.660Z,8.50
2019-02-14T19:18:50.229Z,8.40
2019-02-14T19:21:17.751Z,8.40
2019-02-14T19:23:44.698Z,8.30
2019-02-14T19:26:12.842Z,8.40
2019-02-14T19:28:39.939Z,8.40
2019-02-14T19:31:06.699Z,8.50
2019-02-14T19:33:33.296Z,8.40
2019-02-14T19:35:59.993Z,8.40
2019-02-14T19:38:26.623Z,8.40
2019-02-14T19:40:53.296Z,8.30
2019-02-14T19:43:20.128Z,8.30
2019-02-14T19:45:46.772Z,8.30
2019-02-14T19:48:13.373Z,8.20
2019-02-14T19:50:40.044Z,8.20
2019-02-14T19:53:06.613Z,8.10
2019-02-14T19:55:33.285Z,8.00
2019-02-14T19:57:59.965Z,8.00
2019-02-14T20:00:27.707Z,8.00
2019-02-14T20:02:55.988Z,8.10
2019-02-14T20:05:22.715Z,8.00
2019-02-14T20:07:49.240Z,8.00
2019-02-14T20:10:15.919Z,8.00
2019-02-14T20:12:42.715Z,8.10
2019-02-14T20:15:12.446Z,8.00
2019-02-14T20:17:39.120Z,7.80
2019-02-14T20:20:07.349Z,8.00
2019-02-14T20:22:33.872Z,7.80
2019-02-14T20:25:00.531Z,7.80
2019-02-14T20:27:27.316Z,7.70
2019-02-14T20:29:53.912Z,7.80
2019-02-14T20:32:20.741Z,7.90
2019-02-14T20:34:47.355Z,7.70
2019-02-14T20:37:14.289Z,7.60
2019-02-14T20:39:40.884Z,7.40
2019-02-14T20:42:07.574Z,7.40
2019-02-14T20:44:34.094Z,7.40
2019-02-14T20:47:00.659Z,7.40
2019-02-14T20:49:27.368Z,7.40
2019-02-14T20:51:53.998Z,7.30
2019-02-14T20:54:20.788Z,7.20
2019-02-14T20:56:47.947Z,7.20
2019-02-14T20:59:14.652Z,7.20
2019-02-14T21:01:41.469Z,7.40
2019-02-14T21:04:08.050Z,7.30
2019-02-14T21:06:35.476Z,7.30
2019-02-14T21:09:04.442Z,7.20
2019-02-14T21:11:31.204Z,7.30
2019-02-14T21:13:57.878Z,7.30
2019-02-14T21:16:24.403Z,7.20
2019-02-14T21:18:50.966Z,7.10
2019-02-14T21:21:17.611Z,6.90
2019-02-14T21:23:44.895Z,6.90
2019-02-14T21:26:11.374Z,6.90
2019-02-14T21:28:37.975Z,6.90
2019-02-14T21:31:04.485Z,6.90
2019-02-14T21:33:31.056Z,6.80
2019-02-14T21:35:57.615Z,6.70
2019-02-14T21:38:24.304Z,6.60
2019-02-14T21:40:50.918Z,6.80
2019-02-14T21:43:17.609Z,6.70
2019-02-14T21:45:45.577Z,6.70
2019-02-14T21:48:12.296Z,6.50
2019-02-14T21:50:38.832Z,6.60
2019-02-14T21:53:05.590Z,6.50
2019-02-14T21:55:32.330Z,6.50
2019-02-14T21:57:59.029Z,6.60
2019-02-14T22:00:27.461Z,6.40
2019-02-14T22:02:54.118Z,6.30
2019-02-14T22:05:25.139Z,6.20
2019-02-14T22:07:49.361Z,6.10
2019-02-14T22:10:16.043Z,6.10
2019-02-14T22:12:44.466Z,6.20
2019-02-14T22:15:14.440Z,6.40
2019-02-14T22:17:41.181Z,6.20
2019-02-14T22:20:08.434Z,6.00
2019-02-14T22:22:34.949Z,6.10
2019-02-14T22:25:01.635Z,6.20
2019-02-14T22:27:28.328Z,6.10
2019-02-14T22:29:55.789Z,6.30
2019-02-14T22:32:22.459Z,6.40
2019-02-14T22:34:49.099Z,6.40
2019-02-14T22:37:15.726Z,6.30
2019-02-14T22:39:42.350Z,6.30
2019-02-14T22:42:09.020Z,6.30
2019-02-14T22:44:35.652Z,6.30
2019-02-14T22:47:02.425Z,6.30
2019-02-14T22:49:29.166Z,6.20
2019-02-14T22:51:55.916Z,6.20
2019-02-14T22:54:22.536Z,6.20
2019-02-14T22:56:49.385Z,6.20
2019-02-14T22:59:15.900Z,6.10
2019-02-14T23:01:43.961Z,6.00
2019-02-14T23:04:10.593Z,6.10
2019-02-14T23:06:37.145Z,6.20
2019-02-14T23:09:06.672Z,6.00
2019-02-14T23:11:34.931Z,6.00
2019-02-14T23:14:02.664Z,6.00
2019-02-14T23:16:29.921Z,6.00
2019-02-14T23:18:58.161Z,6.00
2019-02-14T23:21:25.390Z,6.00
2019-02-14T23:23:52.009Z,6.00
2019-02-14T23:26:20.265Z,6.20
2019-02-14T23:28:46.787Z,6.20
2019-02-14T23:31:13.372Z,6.00
2019-02-14T23:33:39.934Z,5.80
2019-02-14T23:36:06.480Z,5.70
2019-02-14T23:38:33.108Z,5.60
2019-02-14T23:40:59.661Z,5.50
2019-02-14T23:43:26.292Z,5.50
2019-02-14T23:45:52.845Z,5.50
2019-02-14T23:48:19.362Z,5.50
2019-02-14T23:50:45.916Z,5.40
2019-02-14T23:53:12.446Z,5.30
2019-02-14T23:55:39.162Z,5.50
2019-02-14T23:58:05.626Z,5.30
